Lindsborg, KS (67456)

2:13 AM CST on February 14, 2016 (GMT -0600)
Lindsborg Mayor - N. Second | | Change Station
CLOSE
Current Station
Personal Weather Station
Location: Lindsborg, KS
Elevation: 1348 ft
Nearby Weather Stations

Elev 1348 ft 38.58 °N, 97.68 °W | Updated 10 minutes ago

Clear
Clear
23.7 °F
Feels Like 20 °F
N
3.2
Wind Variable Wind from NE

Today
High -- | Low -- °F
--% Chance of Precip.
Yesterday
High -- | Low -- °F
Precip. -- in
Pressure 30.14 in
Visibility 10.0 miles
Clouds Few 6500 ft
Windchill 20 °F
Dew Point 12 °F
Humidity 59%
Rainfall 0.00 in
Snow Depth Not available.
7:23 AM 6:07 PM
Waxing Crescent, 39% visible
METAR KSLN 140753Z 02009KT 10SM FEW065 M04/M13 A3010 RMK AO2 SLP206 T10391128
Pressure 30.14 in
Visibility 10.0 miles
Clouds Few 6500 ft
Windchill 20 °F
Dew Point 12 °F
Humidity 59%
Rainfall 0.00 in
Snow Depth Not available.
7:23 AM 6:07 PM
Waxing Crescent, 39% visible
METAR KSLN 140753Z 02009KT 10SM FEW065 M04/M13 A3010 RMK AO2 SLP206 T10391128

10-Day Weather Forecast

Almanac

Astronomy

Feb. 14, 2016 Rise Set
Actual Time
Civil Twilight
Nautical Twilight
Astronomical Twilight
Moon
Length of Visible Light
Length of Day
Tomorrow will be .
, % of the Moon is Illuminated

Today's Extremes

State Highs State Lows

Community

WunderPhotos

Upload Photos

1,892,757 photos uploaded!

WunderBlog® & News

Nearby

Air Quality

  Air Quality AQ Index Pollutant
Not available.

Snow Depth

Station Depth Elevation

Earthquake Activity

City Distance Mag. Time & Date
Minimum magnitude displayed is 2.5.

Coastal Water Temperatures

Place Temperature

Stations

Nearby Weather Stations

Station Location Temp. Windchill Dew Point Humidity Wind Precip. Elev Updated Type
                   

Watches & Warnings

There are currently no watches in effect.